Time;durP1;ratioP1;P1;durP2;ratioP2;P2;SDS_P1;SDS_P2;PMS_P1;PMS_P2;Temp;Humidity;BMP_temperature;BMP_pressure;BME280_temperature;BME280_humidity;BME280_pressure;Samples;Min_cycle;Max_cycle;Signal;HPM_P1;HPM_P2
2021/10/13 00:00:50;;;;;;;0.90;0.80;;;;;;;3.64;95.74;101643.56;5027590;28;20036;-56
2021/10/13 00:03:15;;;;;;;2.92;1.17;;;;;;;3.62;95.92;101645.56;5028477;28;20040;-56
2021/10/13 00:05:41;;;;;;;1.52;0.80;;;;;;;3.63;96.27;101639.28;5027422;28;20025;-56
2021/10/13 00:08:07;;;;;;;1.30;0.88;;;;;;;3.61;96.18;101643.94;5028729;28;20475;-55
2021/10/13 00:10:33;;;;;;;1.15;0.80;;;;;;;3.64;95.82;101652.34;5027337;28;20032;-56
2021/10/13 00:12:58;;;;;;;1.80;0.82;;;;;;;3.64;95.61;101657.63;5027666;28;20040;-54
2021/10/13 00:15:24;;;;;;;1.73;0.90;;;;;;;3.54;96.27;101653.59;5032037;28;20112;-56
2021/10/13 00:17:49;;;;;;;1.98;0.95;;;;;;;3.54;96.26;101654.41;5027981;28;20667;-56
2021/10/13 00:20:15;;;;;;;2.00;0.88;;;;;;;3.52;95.83;101660.88;5028978;28;20847;-56
2021/10/13 00:22:40;;;;;;;1.95;1.00;;;;;;;3.58;95.97;101665.47;5027346;28;20031;-56
2021/10/13 00:25:06;;;;;;;2.47;1.48;;;;;;;3.57;96.51;101666.47;5031000;28;20029;-54
2021/10/13 00:27:32;;;;;;;1.85;0.82;;;;;;;3.55;96.05;101664.00;5027490;28;20242;-55
2021/10/13 00:29:57;;;;;;;1.33;0.90;;;;;;;3.53;95.39;101662.53;5027980;28;20308;-53
2021/10/13 00:32:23;;;;;;;1.45;0.77;;;;;;;3.46;95.01;101664.25;5027003;28;20025;-56
2021/10/13 00:34:48;;;;;;;5.75;1.10;;;;;;;3.47;96.41;101663.25;5027097;28;20506;-53
2021/10/13 00:37:13;;;;;;;4.88;1.00;;;;;;;3.49;96.10;101666.56;5025268;28;20028;-55
2021/10/13 00:39:39;;;;;;;4.18;1.00;;;;;;;3.46;95.80;101664.25;5025834;28;20586;-53
2021/10/13 00:42:04;;;;;;;1.35;0.75;;;;;;;3.44;96.29;101667.09;5028877;28;20566;-56
2021/10/13 00:44:30;;;;;;;1.83;1.00;;;;;;;3.45;96.22;101657.31;5025825;28;20581;-56
2021/10/13 00:46:56;;;;;;;2.35;0.93;;;;;;;3.46;96.20;101658.97;5027033;28;20483;-55
2021/10/13 00:49:21;;;;;;;2.65;0.90;;;;;;;3.53;96.20;101654.59;5028177;28;20044;-55
2021/10/13 00:51:47;;;;;;;3.47;1.10;;;;;;;3.52;97.09;101671.50;5029787;28;20447;-56
2021/10/13 00:54:12;;;;;;;2.78;0.80;;;;;;;3.53;96.50;101666.00;5026676;28;20102;-54
2021/10/13 00:56:38;;;;;;;2.20;0.85;;;;;;;3.44;96.92;101664.44;5027140;28;20036;-55
2021/10/13 00:59:03;;;;;;;4.07;1.00;;;;;;;3.41;96.33;101661.31;5025469;28;20032;-55
2021/10/13 01:01:55;;;;;;;3.22;0.90;;;;;;;3.48;96.63;101659.59;5026830;28;20610;-56
2021/10/13 01:04:36;;;;;;;3.28;1.17;;;;;;;3.51;97.26;101664.53;5026008;28;20028;-55
2021/10/13 01:07:01;;;;;;;2.33;1.15;;;;;;;3.51;98.82;101661.91;5025883;28;20087;-55
2021/10/13 01:09:33;;;;;;;1.05;0.80;;;;;;;3.54;98.31;101666.84;5024227;28;20032;-55
2021/10/13 01:12:25;;;;;;;3.30;0.82;;;;;;;3.52;98.44;101666.19;5026394;28;20050;-56
2021/10/13 01:14:50;;;;;;;3.25;0.77;;;;;;;3.46;98.40;101667.75;5027325;28;20032;-55
2021/10/13 01:17:26;;;;;;;1.20;0.90;;;;;;;3.46;98.13;101672.22;5025102;28;20025;-56
2021/10/13 01:19:57;;;;;;;3.30;1.15;;;;;;;3.41;98.04;101678.06;5025039;28;20033;-55
2021/10/13 01:22:31;;;;;;;2.53;1.10;;;;;;;3.36;98.03;101682.22;5025685;28;20192;-57
2021/10/13 01:25:16;;;;;;;4.72;0.82;;;;;;;3.30;97.63;101676.63;5024269;28;20075;-56
2021/10/13 01:27:54;;;;;;;4.97;1.00;;;;;;;3.26;97.06;101682.47;5025198;28;20411;-55
2021/10/13 01:30:22;;;;;;;2.55;1.00;;;;;;;3.16;96.79;101674.75;5026015;28;20098;-55
2021/10/13 01:32:57;;;;;;;2.70;1.15;;;;;;;3.03;97.06;101672.69;5022058;28;20363;-56
2021/10/13 01:35:26;;;;;;;1.98;0.90;;;;;;;2.98;97.42;101687.44;5025034;28;20013;-56
2021/10/13 01:37:56;;;;;;;2.33;0.80;;;;;;;2.88;97.37;101692.16;5024706;28;20376;-56
2021/10/13 01:40:29;;;;;;;5.45;0.80;;;;;;;2.91;97.00;101691.81;5023903;28;20029;-56
2021/10/13 01:42:55;;;;;;;2.67;0.93;;;;;;;2.99;98.45;101689.09;5023603;28;20028;-56
2021/10/13 01:45:23;;;;;;;3.00;1.23;;;;;;;3.07;99.15;101702.31;5022490;28;20380;-56
2021/10/13 01:47:49;;;;;;;1.45;0.90;;;;;;;3.06;99.19;101703.31;5024691;28;20631;-57
2021/10/13 01:50:17;;;;;;;5.15;1.40;;;;;;;3.06;99.32;101703.31;5024632;28;20025;-54
2021/10/13 01:52:46;;;;;;;3.60;1.20;;;;;;;3.09;99.51;101702.94;5021269;28;20075;-56
2021/10/13 01:55:12;;;;;;;1.85;1.08;;;;;;;3.11;99.66;101711.53;5024090;28;20017;-56
2021/10/13 01:57:43;;;;;;;2.95;1.02;;;;;;;3.11;99.25;101711.53;5023641;28;20394;-56
2021/10/13 02:00:10;;;;;;;4.90;1.20;;;;;;;2.99;98.88;101708.47;5025369;28;20123;-55
2021/10/13 02:02:37;;;;;;;5.90;1.17;;;;;;;3.05;99.00;101714.88;5022371;28;20225;-56
2021/10/13 02:05:05;;;;;;;4.82;1.30;;;;;;;3.09;98.24;101721.47;5023721;28;20410;-56
2021/10/13 02:07:32;;;;;;;6.50;1.30;;;;;;;3.02;98.85;101717.88;5024789;28;20055;-55
2021/10/13 02:10:02;;;;;;;2.35;1.33;;;;;;;2.97;97.98;101714.94;5021013;28;20102;-56
2021/10/13 02:12:32;;;;;;;3.85;1.25;;;;;;;2.84;98.27;101714.66;5022446;28;22212;-56
2021/10/13 02:14:59;;;;;;;2.63;1.50;;;;;;;2.83;98.31;101715.66;5024245;28;20063;-56
2021/10/13 02:17:25;;;;;;;6.63;1.90;;;;;;;2.87;98.68;101722.25;5023096;28;20116;-56
2021/10/13 02:19:53;;;;;;;4.78;1.70;;;;;;;2.87;98.67;101725.75;5025216;28;20037;-56
2021/10/13 02:22:20;;;;;;;3.17;1.83;;;;;;;2.86;98.43;101731.19;5026042;28;20457;-56
2021/10/13 02:24:49;;;;;;;9.63;1.42;;;;;;;2.85;98.89;101732.19;5023600;28;20048;-56
2021/10/13 02:27:29;;;;;;;6.35;1.60;;;;;;;2.91;99.83;101731.50;5023598;28;20031;-56
2021/10/13 02:29:55;;;;;;;3.28;1.55;;;;;;;3.08;100.00;101730.44;5021178;28;22498;-56
2021/10/13 02:32:20;;;;;;;5.47;1.60;;;;;;;3.10;100.00;101732.91;5026400;28;21094;-58
2021/10/13 02:34:47;;;;;;;3.03;1.33;;;;;;;3.13;100.00;101736.00;5041088;28;20033;-55
2021/10/13 02:37:12;;;;;;;3.90;1.35;;;;;;;3.18;100.00;101738.94;5027177;28;20052;-56
2021/10/13 02:39:37;;;;;;;2.55;1.20;;;;;;;3.25;100.00;101742.56;5025357;28;20033;-56
2021/10/13 02:42:03;;;;;;;4.57;1.42;;;;;;;3.24;100.00;101748.88;5024928;28;20053;-53
2021/10/13 02:44:29;;;;;;;2.28;1.00;;;;;;;3.29;100.00;101748.34;5025436;28;20029;-53
2021/10/13 02:47:13;;;;;;;6.35;1.77;;;;;;;3.27;100.00;101750.34;5026051;28;20090;-56
2021/10/13 02:50:16;;;;;;;2.90;0.90;;;;;;;3.32;100.00;101746.16;5023988;28;20027;-54
2021/10/13 02:52:55;;;;;;;6.50;1.15;;;;;;;3.30;100.00;101736.72;5026510;28;20021;-56
2021/10/13 02:55:38;;;;;;;3.50;1.10;;;;;;;3.36;100.00;101740.50;5026825;28;20067;-56
2021/10/13 02:58:26;;;;;;;1.58;1.00;;;;;;;3.36;100.00;101732.53;5038529;28;20036;-55
2021/10/13 03:00:53;;;;;;;2.95;1.73;;;;;;;3.41;100.00;101739.00;5026036;28;20021;-55
2021/10/13 03:03:28;;;;;;;7.97;2.08;;;;;;;3.38;100.00;101746.44;5026032;28;20098;-53
2021/10/13 03:05:56;;;;;;;2.22;1.30;;;;;;;3.38;100.00;101741.97;5024019;28;20193;-53
2021/10/13 03:08:26;;;;;;;6.10;1.50;;;;;;;3.45;100.00;101747.41;5026724;28;21836;-54
2021/10/13 03:10:55;;;;;;;1.65;1.20;;;;;;;3.47;100.00;101740.09;5025998;28;20024;-57
2021/10/13 03:13:25;;;;;;;4.90;1.58;;;;;;;3.48;100.00;101752.34;5025238;28;20029;-56
2021/10/13 03:15:52;;;;;;;1.90;1.50;;;;;;;3.50;100.00;101760.94;5025670;28;20514;-56
2021/10/13 03:18:20;;;;;;;3.72;1.58;;;;;;;3.47;100.00;101758.66;5026223;28;20068;-56
2021/10/13 03:20:49;;;;;;;5.40;1.50;;;;;;;3.48;100.00;101761.13;5025266;28;20103;-56
2021/10/13 03:23:16;;;;;;;5.82;1.48;;;;;;;3.56;100.00;101761.03;5029332;28;20036;-56
2021/10/13 03:25:42;;;;;;;3.17;1.40;;;;;;;3.66;100.00;101762.66;5029296;28;20544;-58
2021/10/13 03:28:08;;;;;;;1.75;1.20;;;;;;;3.71;100.00;101770.88;5027783;28;20032;-57
2021/10/13 03:30:33;;;;;;;3.92;1.50;;;;;;;3.74;100.00;101770.50;5029170;28;20394;-57
2021/10/13 03:32:59;;;;;;;6.57;1.23;;;;;;;3.80;100.00;101773.28;5028786;28;20025;-57
2021/10/13 03:35:27;;;;;;;1.77;1.10;;;;;;;3.86;100.00;101769.91;5029865;28;20117;-56
2021/10/13 03:37:55;;;;;;;4.88;1.52;;;;;;;3.90;100.00;101775.69;5029288;28;20063;-56
2021/10/13 03:40:21;;;;;;;2.10;1.02;;;;;;;3.93;100.00;101777.97;5027497;28;20817;-54
2021/10/13 03:42:47;;;;;;;3.13;1.10;;;;;;;3.91;100.00;101780.81;5028632;28;20095;-56
2021/10/13 03:45:14;;;;;;;2.47;1.00;;;;;;;3.92;100.00;101785.09;5026580;28;20029;-56
2021/10/13 03:47:41;;;;;;;3.38;1.00;;;;;;;3.98;100.00;101780.09;5029961;28;20394;-56
2021/10/13 03:50:07;;;;;;;2.53;1.08;;;;;;;4.00;100.00;101778.09;5027778;28;20407;-54
2021/10/13 03:52:32;;;;;;;5.38;1.90;;;;;;;4.08;100.00;101783.31;5028509;28;20029;-56
2021/10/13 03:54:58;;;;;;;3.88;1.00;;;;;;;4.11;100.00;101780.28;5028672;28;20176;-55
2021/10/13 03:57:23;;;;;;;3.65;0.82;;;;;;;4.15;99.94;101786.91;5028998;28;20124;-56
2021/10/13 03:59:49;;;;;;;3.10;1.10;;;;;;;4.07;99.87;101787.78;5027276;28;20025;-56
2021/10/13 04:02:14;;;;;;;1.38;0.80;;;;;;;4.09;99.56;101798.22;5029859;28;20035;-56
2021/10/13 04:04:39;;;;;;;2.97;0.93;;;;;;;4.18;99.68;101794.50;5028679;28;20033;-55
2021/10/13 04:07:05;;;;;;;6.32;1.20;;;;;;;4.19;99.12;101801.47;5027577;28;20063;-56
2021/10/13 04:09:30;;;;;;;5.03;1.10;;;;;;;4.22;99.19;101801.09;5025162;28;20132;-55
2021/10/13 04:11:56;;;;;;;3.40;0.93;;;;;;;4.25;98.85;101798.91;5028585;28;20033;-57
2021/10/13 04:14:22;;;;;;;2.38;1.00;;;;;;;4.20;98.97;101806.59;5024417;28;20558;-57
2021/10/13 04:16:47;;;;;;;3.72;1.35;;;;;;;4.22;99.02;101804.56;5027692;28;20029;-56
2021/10/13 04:19:13;;;;;;;2.00;0.77;;;;;;;4.22;98.79;101806.41;5026243;28;20551;-55
2021/10/13 04:21:38;;;;;;;2.83;0.90;;;;;;;4.23;98.91;101818.66;5027508;28;20051;-53
2021/10/13 04:24:04;;;;;;;2.58;0.90;;;;;;;4.28;98.69;101808.31;5029553;28;20025;-56
2021/10/13 04:26:29;;;;;;;2.35;0.75;;;;;;;4.29;99.04;101809.97;5026627;28;20182;-56
2021/10/13 04:28:55;;;;;;;2.53;1.00;;;;;;;4.38;98.64;101811.53;5026596;28;20091;-55
2021/10/13 04:31:20;;;;;;;2.38;1.13;;;;;;;4.40;98.39;101809.53;5027383;28;20068;-56
2021/10/13 04:33:46;;;;;;;2.70;0.68;;;;;;;4.44;98.31;101805.50;5025142;28;20079;-56
2021/10/13 04:36:12;;;;;;;2.28;0.80;;;;;;;4.47;97.94;101806.97;5028402;28;20659;-56
2021/10/13 04:38:37;;;;;;;1.23;0.82;;;;;;;4.49;97.47;101807.63;5027237;28;20036;-56
2021/10/13 04:41:03;;;;;;;2.45;1.02;;;;;;;4.46;97.55;101816.75;5026521;28;20034;-56
2021/10/13 04:43:28;;;;;;;4.30;0.85;;;;;;;4.53;97.18;101814.22;5029498;28;20426;-54
2021/10/13 04:45:54;;;;;;;1.70;0.80;;;;;;;4.60;96.87;101822.28;5027760;28;20469;-56
2021/10/13 04:48:19;;;;;;;2.20;0.80;;;;;;;4.68;96.42;101816.88;5028582;28;20413;-54
2021/10/13 04:50:44;;;;;;;3.25;0.90;;;;;;;4.67;96.09;101813.41;5027766;28;21523;-55
2021/10/13 04:53:10;;;;;;;1.88;0.77;;;;;;;4.75;95.91;101817.78;5028182;28;20032;-55
2021/10/13 04:55:35;;;;;;;1.70;1.08;;;;;;;4.77;95.51;101819.25;5026686;28;20036;-54
2021/10/13 04:58:01;;;;;;;2.83;0.65;;;;;;;4.77;95.65;101818.44;5027240;28;20395;-54
2021/10/13 05:00:26;;;;;;;3.40;0.65;;;;;;;4.80;95.59;101826.84;5027977;28;20512;-55
2021/10/13 05:02:53;;;;;;;2.30;0.80;;;;;;;4.90;94.94;101823.09;5029167;28;20025;-53
2021/10/13 05:05:18;;;;;;;2.80;0.77;;;;;;;4.89;94.32;101822.28;5027651;28;20510;-56
2021/10/13 05:07:44;;;;;;;0.88;0.77;;;;;;;4.89;94.35;101819.63;5027350;28;20106;-56
2021/10/13 05:10:09;;;;;;;3.05;1.27;;;;;;;4.89;94.40;101822.28;5026916;28;20075;-55
2021/10/13 05:12:35;;;;;;;4.20;1.00;;;;;;;4.91;94.04;101814.94;5027469;28;20371;-55
2021/10/13 05:15:00;;;;;;;2.17;0.77;;;;;;;4.88;94.10;101820.63;5023317;28;20032;-55
2021/10/13 05:17:26;;;;;;;1.20;0.70;;;;;;;4.92;94.13;101829.88;5025836;28;20032;-56
2021/10/13 05:19:51;;;;;;;1.80;0.60;;;;;;;4.92;93.80;101835.19;5027429;28;20029;-55
2021/10/13 05:22:17;;;;;;;1.70;0.93;;;;;;;4.92;93.74;101829.88;5027812;28;20044;-58
2021/10/13 05:24:43;;;;;;;2.05;1.15;;;;;;;4.86;94.12;101827.97;5024551;28;20029;-56
2021/10/13 05:27:08;;;;;;;1.67;0.90;;;;;;;4.82;94.38;101827.47;5026125;28;20033;-56
2021/10/13 05:29:34;;;;;;;1.25;0.98;;;;;;;4.78;94.30;101830.69;5025206;28;20666;-56
2021/10/13 05:31:59;;;;;;;1.77;0.70;;;;;;;4.78;94.44;101830.69;5026435;28;21393;-54
2021/10/13 05:34:25;;;;;;;1.50;0.75;;;;;;;4.84;94.27;101835.25;5024218;28;20032;-55
2021/10/13 05:36:50;;;;;;;1.17;0.73;;;;;;;4.80;94.29;101840.13;5026792;28;20067;-55
2021/10/13 05:39:15;;;;;;;3.45;0.93;;;;;;;4.83;94.51;101844.22;5027454;28;20491;-56
2021/10/13 05:41:41;;;;;;;1.20;1.00;;;;;;;4.84;93.94;101854.66;5027518;28;20037;-54
2021/10/13 05:44:06;;;;;;;1.08;0.82;;;;;;;4.82;93.76;101858.53;5029052;28;20040;-54
2021/10/13 05:46:32;;;;;;;1.00;0.90;;;;;;;4.77;93.96;101858.25;5028467;28;20033;-55
2021/10/13 05:48:57;;;;;;;2.15;1.10;;;;;;;4.70;94.80;101860.81;5025806;28;20035;-55
2021/10/13 05:51:23;;;;;;;4.70;1.23;;;;;;;4.72;94.34;101873.91;5027548;28;20438;-55
2021/10/13 05:53:48;;;;;;;2.20;0.80;;;;;;;4.63;95.44;101872.34;5026343;28;20032;-54
2021/10/13 05:56:14;;;;;;;3.30;1.40;;;;;;;4.61;95.76;101877.00;5027449;28;20056;-55
2021/10/13 05:58:40;;;;;;;3.30;0.90;;;;;;;4.71;96.02;101878.41;5025877;28;20029;-56
2021/10/13 06:01:06;;;;;;;2.85;1.00;;;;;;;4.70;95.70;101892.69;5026009;28;20036;-53
2021/10/13 06:03:31;;;;;;;14.18;1.48;;;;;;;4.69;95.82;101884.91;5025958;28;20050;-56
2021/10/13 06:05:57;;;;;;;2.22;1.00;;;;;;;4.69;96.24;101893.69;5026488;28;20515;-56
2021/10/13 06:08:22;;;;;;;3.83;1.00;;;;;;;4.80;95.71;101897.72;5026976;28;21393;-56
2021/10/13 06:10:48;;;;;;;1.58;1.02;;;;;;;4.95;95.84;101903.03;5027216;28;20025;-57
2021/10/13 06:13:14;;;;;;;5.78;1.52;;;;;;;5.15;95.23;101912.09;5025618;28;20033;-56
2021/10/13 06:15:39;;;;;;;1.63;1.00;;;;;;;5.32;93.72;101905.59;5025588;28;20189;-55
2021/10/13 06:18:15;;;;;;;2.42;1.38;;;;;;;5.30;93.28;101907.59;5026807;28;20786;-56
2021/10/13 06:20:40;;;;;;;3.75;1.17;;;;;;;5.21;93.95;101921.19;5024630;28;20021;-55
2021/10/13 06:23:06;;;;;;;3.72;1.25;;;;;;;5.26;94.02;101918.81;5026623;28;20514;-56
2021/10/13 06:25:31;;;;;;;2.38;1.13;;;;;;;5.21;93.70;101918.53;5026192;28;20024;-56
2021/10/13 06:27:57;;;;;;;2.35;1.45;;;;;;;5.18;93.82;101925.00;5027172;28;20466;-55
2021/10/13 06:30:22;;;;;;;1.60;1.23;;;;;;;5.14;93.87;101934.38;5027764;28;20360;-56
2021/10/13 06:32:48;;;;;;;3.67;1.30;;;;;;;5.08;94.29;101933.28;5025587;28;20036;-56
2021/10/13 06:35:13;;;;;;;3.85;1.60;;;;;;;5.16;94.22;101943.81;5027763;28;20025;-54
2021/10/13 06:37:39;;;;;;;3.50;1.17;;;;;;;5.34;94.42;101939.94;5026956;28;20037;-55
2021/10/13 06:40:06;;;;;;;1.48;1.30;;;;;;;5.46;93.41;101951.78;5027080;28;20037;-56
2021/10/13 06:42:31;;;;;;;6.07;1.27;;;;;;;5.53;93.08;101950.00;5026438;28;20540;-56
2021/10/13 06:44:57;;;;;;;3.20;1.80;;;;;;;5.54;92.92;101950.84;5027258;28;20025;-53
2021/10/13 06:47:22;;;;;;;4.13;1.63;;;;;;;5.43;93.02;101950.31;5025182;28;20598;-56
2021/10/13 06:49:47;;;;;;;3.35;1.23;;;;;;;5.36;93.39;101962.66;5027316;28;20810;-55
2021/10/13 06:52:13;;;;;;;2.63;1.25;;;;;;;5.40;93.60;101968.47;5027006;28;20044;-54
2021/10/13 06:54:38;;;;;;;5.05;1.48;;;;;;;5.62;93.27;101962.22;5027444;28;20546;-56
2021/10/13 06:57:04;;;;;;;4.38;1.50;;;;;;;5.83;92.28;101961.44;5029315;28;20032;-56
2021/10/13 06:59:30;;;;;;;2.28;1.23;;;;;;;5.96;91.28;101966.13;5031481;28;20022;-56
2021/10/13 07:01:55;;;;;;;2.90;1.45;;;;;;;6.16;90.73;101967.16;5028818;28;20032;-56
2021/10/13 07:04:21;;;;;;;2.88;1.20;;;;;;;6.06;90.34;101964.78;5029938;28;20025;-56
2021/10/13 07:06:46;;;;;;;3.40;1.38;;;;;;;6.19;90.32;101958.78;5028866;28;21725;-56
2021/10/13 07:09:11;;;;;;;2.20;1.42;;;;;;;6.35;90.16;101963.03;5031009;28;20047;-56
2021/10/13 07:11:37;;;;;;;4.85;1.10;;;;;;;6.48;89.58;101962.34;5030086;28;20037;-55
2021/10/13 07:14:03;;;;;;;4.38;1.40;;;;;;;6.49;89.06;101964.00;5031914;28;20617;-56
2021/10/13 07:16:29;;;;;;;4.15;1.30;;;;;;;6.72;88.69;101961.94;5029935;28;20530;-55
2021/10/13 07:18:55;;;;;;;1.60;1.10;;;;;;;6.87;87.63;101965.31;5028542;28;20029;-56
2021/10/13 07:21:20;;;;;;;4.82;1.45;;;;;;;7.05;87.39;101972.00;5024038;28;20438;-55
2021/10/13 07:23:46;;;;;;;4.00;0.98;;;;;;;7.14;86.14;101973.50;5028122;28;20037;-56
2021/10/13 07:26:11;;;;;;;2.17;1.63;;;;;;;7.31;86.32;101974.81;5028077;28;20044;-56
2021/10/13 07:28:42;;;;;;;4.97;1.10;;;;;;;7.44;84.97;101977.56;5027189;28;20028;-55
2021/10/13 07:31:08;;;;;;;1.40;0.98;;;;;;;7.68;85.14;101980.75;5024866;28;20213;-56
2021/10/13 07:33:34;;;;;;;2.35;0.95;;;;;;;7.92;84.57;101972.25;5026090;28;20028;-56
2021/10/13 07:35:59;;;;;;;4.18;1.13;;;;;;;7.97;83.63;101972.47;5029191;28;20025;-56
2021/10/13 07:38:26;;;;;;;3.80;1.30;;;;;;;8.17;82.97;101978.66;5029363;28;20029;-56
2021/10/13 07:40:52;;;;;;;3.38;1.17;;;;;;;8.28;83.05;101976.44;5025921;28;20050;-56
2021/10/13 07:43:18;;;;;;;2.17;0.95;;;;;;;8.04;82.20;101983.97;5025999;28;20566;-56
2021/10/13 07:45:43;;;;;;;4.47;0.90;;;;;;;8.21;81.99;101981.75;5029278;28;20037;-56
2021/10/13 07:48:09;;;;;;;1.90;0.75;;;;;;;8.25;81.40;101979.50;5029069;28;20481;-55
2021/10/13 07:50:35;;;;;;;4.45;0.98;;;;;;;8.33;81.43;101990.81;5027851;28;20036;-56
2021/10/13 07:53:00;;;;;;;1.52;1.00;;;;;;;8.46;81.51;101979.38;5028097;28;20463;-55
2021/10/13 07:55:26;;;;;;;1.77;1.05;;;;;;;8.44;80.25;101986.78;5028624;28;20193;-55
2021/10/13 07:57:51;;;;;;;1.92;0.98;;;;;;;8.63;80.24;101991.31;5027242;28;20036;-56
2021/10/13 08:00:19;;;;;;;3.03;0.80;;;;;;;8.64;80.61;101990.28;5026957;28;20025;-56
2021/10/13 08:02:45;;;;;;;2.00;0.95;;;;;;;8.69;80.32;101995.81;5025117;28;20735;-56
2021/10/13 08:05:10;;;;;;;2.95;0.80;;;;;;;8.96;79.66;101993.97;5027140;28;20039;-56
2021/10/13 08:07:36;;;;;;;2.78;0.82;;;;;;;9.22;79.27;101989.63;5026962;28;20040;-55
2021/10/13 08:10:01;;;;;;;1.50;0.90;;;;;;;9.35;77.91;101995.78;5027988;28;20062;-56
2021/10/13 08:12:27;;;;;;;1.05;0.82;;;;;;;9.46;77.27;102001.50;5027883;28;22086;-55
2021/10/13 08:14:52;;;;;;;1.98;0.75;;;;;;;9.81;77.35;102005.50;5026996;28;20239;-56
2021/10/13 08:17:18;;;;;;;1.35;0.82;;;;;;;9.85;75.28;102014.72;5028074;28;20029;-56
2021/10/13 08:19:43;;;;;;;1.77;0.70;;;;;;;9.98;75.39;102006.66;5029821;28;20029;-55
2021/10/13 08:22:09;;;;;;;2.75;0.95;;;;;;;10.12;74.90;102011.94;5027917;28;20125;-56
2021/10/13 08:24:34;;;;;;;1.33;0.80;;;;;;;10.15;73.81;102012.34;5028206;28;20025;-56
2021/10/13 08:27:02;;;;;;;1.77;0.70;;;;;;;10.18;72.55;102013.75;5026544;28;20031;-55
2021/10/13 08:29:28;;;;;;;2.75;1.02;;;;;;;10.39;72.86;102024.16;5027035;28;20255;-56
2021/10/13 08:31:53;;;;;;;1.70;0.80;;;;;;;10.46;72.52;102024.97;5027351;28;21411;-57
2021/10/13 08:34:19;;;;;;;3.75;0.88;;;;;;;10.45;72.31;102033.22;5027990;28;20029;-56
2021/10/13 08:36:44;;;;;;;1.35;0.70;;;;;;;10.62;72.35;102026.31;5030156;28;20036;-56
2021/10/13 08:39:10;;;;;;;1.50;0.65;;;;;;;10.61;71.31;102032.72;5026503;28;20078;-56
2021/10/13 08:41:35;;;;;;;1.42;0.77;;;;;;;10.89;71.33;102025.06;5027079;28;20024;-56
2021/10/13 08:44:01;;;;;;;1.50;0.70;;;;;;;11.06;70.91;102033.38;5026336;28;20095;-56
2021/10/13 08:46:26;;;;;;;4.15;0.90;;;;;;;10.88;70.38;102028.78;5026761;28;20028;-57
2021/10/13 08:48:52;;;;;;;1.30;0.77;;;;;;;11.07;70.50;102036.88;5023771;28;20029;-56
2021/10/13 08:51:17;;;;;;;1.27;0.70;;;;;;;11.02;70.02;102029.50;5028130;28;20450;-53
2021/10/13 08:53:43;;;;;;;1.38;0.80;;;;;;;11.03;69.47;102031.13;5028126;28;20067;-55
2021/10/13 08:56:09;;;;;;;2.35;0.95;;;;;;;11.19;69.66;102033.25;5025896;28;20117;-56
2021/10/13 08:58:40;;;;;;;1.60;0.70;;;;;;;11.06;69.14;102036.06;5028986;28;20403;-56
2021/10/13 09:01:07;;;;;;;2.15;0.70;;;;;;;10.84;69.76;102032.94;5025135;28;20570;-56
2021/10/13 09:03:32;;;;;;;1.50;0.88;;;;;;;11.05;69.96;102039.78;5028651;28;20111;-56
2021/10/13 09:06:01;;;;;;;2.55;0.75;;;;;;;11.24;70.06;102037.13;5027515;28;20428;-56
2021/10/13 09:08:27;;;;;;;1.65;0.98;;;;;;;11.27;69.13;102036.69;5024954;28;20449;-56
2021/10/13 09:10:55;;;;;;;2.72;0.80;;;;;;;10.94;69.54;102037.81;5025211;28;20037;-56
2021/10/13 09:13:20;;;;;;;0.98;0.70;;;;;;;11.03;70.15;102044.53;5026878;28;20028;-53
2021/10/13 09:15:51;;;;;;;0.70;0.60;;;;;;;11.00;69.81;102045.00;5029187;28;20035;-57
2021/10/13 09:18:22;;;;;;;1.10;0.60;;;;;;;10.95;68.84;102039.47;5041588;28;20032;-54
2021/10/13 09:20:50;;;;;;;0.75;0.57;;;;;;;11.06;68.61;102038.75;5028462;28;20482;-56
2021/10/13 09:23:30;;;;;;;2.58;0.90;;;;;;;11.04;68.52;102035.47;5029291;28;20037;-53
2021/10/13 09:26:08;;;;;;;2.63;0.75;;;;;;;11.29;68.27;102034.59;5026622;28;20036;-53
2021/10/13 09:28:33;;;;;;;0.65;0.60;;;;;;;11.13;67.70;102035.97;5027509;28;20040;-56
2021/10/13 09:31:22;;;;;;;0.85;0.50;;;;;;;11.22;67.76;102037.34;5027873;28;20039;-56
2021/10/13 09:33:59;;;;;;;2.97;0.80;;;;;;;11.38;68.08;102041.34;5027831;28;20191;-56
2021/10/13 09:36:37;;;;;;;0.68;0.50;;;;;;;11.62;66.95;102040.47;5042010;28;20021;-53
2021/10/13 09:39:15;;;;;;;1.00;0.77;;;;;;;11.89;66.82;102048.25;5027356;28;21401;-56
2021/10/13 09:42:08;;;;;;;1.90;0.60;;;;;;;12.24;64.91;102059.19;5028923;28;20483;-55
2021/10/13 09:44:52;;;;;;;1.48;0.60;;;;;;;12.27;64.86;102059.53;5029457;28;20036;-55
2021/10/13 09:47:18;;;;;;;2.60;0.60;;;;;;;11.90;64.34;102053.41;5027529;28;20486;-56
2021/10/13 09:49:46;;;;;;;1.10;0.65;;;;;;;11.94;64.28;102069.88;5026941;28;20040;-56
2021/10/13 09:52:11;;;;;;;0.65;0.40;;;;;;;12.17;63.01;102064.63;5026207;28;20041;-56
2021/10/13 09:54:38;;;;;;;0.50;0.50;;;;;;;12.27;62.17;102070.28;5026827;28;20426;-56
2021/10/13 09:57:19;;;;;;;1.40;0.43;;;;;;;12.55;61.61;102064.31;5027699;28;20103;-56
2021/10/13 10:00:03;;;;;;;0.68;0.50;;;;;;;12.63;61.06;102071.25;5025673;28;20431;-56
2021/10/13 10:02:34;;;;;;;0.75;0.45;;;;;;;12.69;60.76;102070.31;5029955;28;20032;-57
2021/10/13 10:05:03;;;;;;;1.13;0.52;;;;;;;12.73;60.40;102076.88;5027545;28;20041;-56
2021/10/13 10:07:29;;;;;;;2.25;0.52;;;;;;;12.82;59.72;102072.00;5026795;28;20391;-56
2021/10/13 10:10:09;;;;;;;1.63;0.50;;;;;;;12.96;60.03;102070.75;5025230;28;20060;-56
2021/10/13 10:12:57;;;;;;;0.30;0.30;;;;;;;13.17;58.71;102067.47;5028533;28;20029;-57
2021/10/13 10:15:29;;;;;;;2.35;0.40;;;;;;;12.79;58.36;102072.47;5027404;28;20029;-57
2021/10/13 10:17:55;;;;;;;0.63;0.32;;;;;;;12.65;59.88;102071.81;5026422;28;20206;-54
2021/10/13 10:20:39;;;;;;;1.33;0.77;;;;;;;12.39;60.41;102071.16;5023958;28;20074;-55
2021/10/13 10:23:27;;;;;;;3.50;0.43;;;;;;;12.15;60.03;102072.09;5026630;28;20090;-55
2021/10/13 10:25:54;;;;;;;0.55;0.40;;;;;;;12.60;59.17;102069.84;5026151;28;20036;-56
2021/10/13 10:28:50;;;;;;;1.17;0.40;;;;;;;13.08;59.01;102068.88;5024361;28;20094;-56
2021/10/13 10:31:27;;;;;;;0.82;0.38;;;;;;;13.05;57.42;102076.59;5026484;28;20025;-57
2021/10/13 10:34:05;;;;;;;0.40;0.28;;;;;;;12.64;56.34;102070.19;5030369;28;20060;-57
2021/10/13 10:36:51;;;;;;;2.63;0.32;;;;;;;12.83;57.26;102079.81;5031931;28;20025;-55
2021/10/13 10:39:18;;;;;;;1.10;0.50;;;;;;;13.16;56.14;102068.53;5031253;28;20613;-56
2021/10/13 10:41:49;;;;;;;0.70;0.40;;;;;;;13.71;55.43;102067.38;5030635;28;20040;-55
2021/10/13 10:44:34;;;;;;;0.52;0.40;;;;;;;14.08;54.83;102074.09;5046607;28;20487;-56
2021/10/13 10:47:17;;;;;;;0.45;0.30;;;;;;;13.82;55.38;102082.69;5028321;28;20035;-56
2021/10/13 10:49:46;;;;;;;1.13;0.43;;;;;;;13.41;54.88;102081.78;5029113;28;20597;-57
2021/10/13 10:52:20;;;;;;;1.10;0.30;;;;;;;13.17;54.57;102088.19;5029375;28;20033;-56
2021/10/13 10:54:53;;;;;;;2.65;0.50;;;;;;;13.31;52.84;102078.88;5030334;28;20995;-56
2021/10/13 10:57:39;;;;;;;1.20;0.38;;;;;;;13.61;52.74;102076.03;5031534;28;20846;-56
2021/10/13 11:00:08;;;;;;;3.05;0.40;;;;;;;13.67;53.58;102074.28;5029033;28;20043;-57
2021/10/13 11:02:37;;;;;;;0.60;0.32;;;;;;;13.61;53.44;102078.72;5033070;28;20032;-57
2021/10/13 11:05:08;;;;;;;0.98;0.35;;;;;;;13.34;53.77;102086.47;5029001;28;20094;-56
2021/10/13 11:07:35;;;;;;;1.65;0.55;;;;;;;13.08;53.82;102094.94;5030838;28;20423;-55
2021/10/13 11:10:02;;;;;;;0.95;0.43;;;;;;;13.12;54.55;102096.16;5028500;28;20040;-57
2021/10/13 11:12:47;;;;;;;0.50;0.50;;;;;;;13.54;53.97;102095.03;5029232;28;20275;-55
2021/10/13 11:15:14;;;;;;;1.20;0.80;;;;;;;14.28;53.17;102091.72;5029202;28;20112;-56
2021/10/13 11:17:39;;;;;;;2.10;0.60;;;;;;;15.40;49.98;102094.47;5029077;28;20029;-54
2021/10/13 11:20:10;;;;;;;0.93;0.50;;;;;;;16.65;45.40;102092.81;5028618;28;20052;-56
2021/10/13 11:22:36;;;;;;;1.27;0.43;;;;;;;18.60;41.85;102082.84;5030416;28;20036;-55
2021/10/13 11:25:14;;;;;;;2.35;0.60;;;;;;;19.46;39.85;102087.50;5027079;28;20518;-56
2021/10/13 11:27:41;;;;;;;0.70;0.40;;;;;;;17.55;42.22;102087.59;5028731;28;20537;-57
2021/10/13 11:30:17;;;;;;;1.38;0.63;;;;;;;19.19;40.00;102094.03;5030168;28;20033;-57
2021/10/13 11:32:43;;;;;;;2.45;1.00;;;;;;;21.35;36.12;102099.78;5029454;28;20033;-57
2021/10/13 11:35:09;;;;;;;1.42;1.00;;;;;;;22.97;34.02;102093.31;5031155;28;20021;-57